sensor_id;sensor_type;location;lat;lon;timestamp;P1;durP1;ratioP1;P2;durP2;ratioP2
9438;SDS011;5176;42.622;25.386;2023-05-16T00:01:48;12.50;;;11.20;;
9438;SDS011;5176;42.622;25.386;2023-05-16T00:04:16;12.43;;;11.13;;
9438;SDS011;5176;42.622;25.386;2023-05-16T00:06:44;16.83;;;11.85;;
9438;SDS011;5176;42.622;25.386;2023-05-16T00:09:12;12.73;;;11.33;;
9438;SDS011;5176;42.622;25.386;2023-05-16T00:11:39;12.10;;;10.97;;
9438;SDS011;5176;42.622;25.386;2023-05-16T00:14:07;12.52;;;11.32;;
9438;SDS011;5176;42.622;25.386;2023-05-16T00:16:34;14.27;;;11.50;;
9438;SDS011;5176;42.622;25.386;2023-05-16T00:19:03;12.83;;;11.63;;
9438;SDS011;5176;42.622;25.386;2023-05-16T00:21:31;12.07;;;10.80;;
9438;SDS011;5176;42.622;25.386;2023-05-16T00:23:58;11.37;;;10.27;;
9438;SDS011;5176;42.622;25.386;2023-05-16T00:26:25;12.43;;;10.77;;
9438;SDS011;5176;42.622;25.386;2023-05-16T00:28:53;12.63;;;11.50;;
9438;SDS011;5176;42.622;25.386;2023-05-16T00:31:20;12.43;;;11.33;;
9438;SDS011;5176;42.622;25.386;2023-05-16T00:33:48;11.97;;;10.77;;
9438;SDS011;5176;42.622;25.386;2023-05-16T00:36:17;12.10;;;10.68;;
9438;SDS011;5176;42.622;25.386;2023-05-16T00:38:44;18.23;;;11.83;;
9438;SDS011;5176;42.622;25.386;2023-05-16T00:41:11;19.65;;;11.38;;
9438;SDS011;5176;42.622;25.386;2023-05-16T00:43:39;12.80;;;11.60;;
9438;SDS011;5176;42.622;25.386;2023-05-16T00:46:06;12.10;;;10.90;;
9438;SDS011;5176;42.622;25.386;2023-05-16T00:48:34;12.83;;;11.53;;
9438;SDS011;5176;42.622;25.386;2023-05-16T00:51:01;12.60;;;11.40;;
9438;SDS011;5176;42.622;25.386;2023-05-16T00:53:35;13.23;;;12.03;;
9438;SDS011;5176;42.622;25.386;2023-05-16T00:56:02;15.73;;;12.30;;
9438;SDS011;5176;42.622;25.386;2023-05-16T00:58:32;14.43;;;12.05;;
9438;SDS011;5176;42.622;25.386;2023-05-16T01:01:00;13.03;;;11.63;;
9438;SDS011;5176;42.622;25.386;2023-05-16T01:03:29;12.97;;;11.57;;
9438;SDS011;5176;42.622;25.386;2023-05-16T01:05:57;14.20;;;12.10;;
9438;SDS011;5176;42.622;25.386;2023-05-16T01:08:24;13.10;;;11.90;;
9438;SDS011;5176;42.622;25.386;2023-05-16T01:10:56;13.37;;;11.93;;
9438;SDS011;5176;42.622;25.386;2023-05-16T01:13:30;19.57;;;12.37;;
9438;SDS011;5176;42.622;25.386;2023-05-16T01:16:04;13.73;;;12.33;;
9438;SDS011;5176;42.622;25.386;2023-05-16T01:18:36;13.80;;;12.40;;
9438;SDS011;5176;42.622;25.386;2023-05-16T01:21:10;13.40;;;12.20;;
9438;SDS011;5176;42.622;25.386;2023-05-16T01:23:50;13.77;;;12.37;;
9438;SDS011;5176;42.622;25.386;2023-05-16T01:26:23;13.57;;;12.17;;
9438;SDS011;5176;42.622;25.386;2023-05-16T01:28:52;13.47;;;12.17;;
9438;SDS011;5176;42.622;25.386;2023-05-16T01:31:20;13.17;;;11.97;;
9438;SDS011;5176;42.622;25.386;2023-05-16T01:33:48;13.27;;;11.93;;
9438;SDS011;5176;42.622;25.386;2023-05-16T01:36:19;13.17;;;11.87;;
9438;SDS011;5176;42.622;25.386;2023-05-16T01:38:54;13.90;;;12.63;;
9438;SDS011;5176;42.622;25.386;2023-05-16T01:41:32;13.17;;;11.93;;
9438;SDS011;5176;42.622;25.386;2023-05-16T01:44:07;13.77;;;12.47;;
9438;SDS011;5176;42.622;25.386;2023-05-16T01:46:42;13.93;;;12.53;;
9438;SDS011;5176;42.622;25.386;2023-05-16T01:49:14;13.37;;;12.07;;
9438;SDS011;5176;42.622;25.386;2023-05-16T01:51:49;13.90;;;12.53;;
9438;SDS011;5176;42.622;25.386;2023-05-16T01:54:20;13.70;;;11.87;;
9438;SDS011;5176;42.622;25.386;2023-05-16T01:56:52;13.93;;;12.67;;
9438;SDS011;5176;42.622;25.386;2023-05-16T01:59:22;13.10;;;11.90;;
9438;SDS011;5176;42.622;25.386;2023-05-16T02:01:52;13.23;;;11.93;;
9438;SDS011;5176;42.622;25.386;2023-05-16T02:04:19;13.67;;;12.27;;
9438;SDS011;5176;42.622;25.386;2023-05-16T02:06:48;12.73;;;11.53;;
9438;SDS011;5176;42.622;25.386;2023-05-16T02:09:16;13.30;;;12.10;;
9438;SDS011;5176;42.622;25.386;2023-05-16T02:11:43;14.57;;;13.07;;
9438;SDS011;5176;42.622;25.386;2023-05-16T02:14:12;13.80;;;12.33;;
9438;SDS011;5176;42.622;25.386;2023-05-16T02:16:40;13.63;;;12.27;;
9438;SDS011;5176;42.622;25.386;2023-05-16T02:19:07;18.38;;;16.58;;
9438;SDS011;5176;42.622;25.386;2023-05-16T02:21:35;17.23;;;15.50;;
9438;SDS011;5176;42.622;25.386;2023-05-16T02:24:02;16.47;;;13.43;;
9438;SDS011;5176;42.622;25.386;2023-05-16T02:26:30;14.23;;;12.83;;
9438;SDS011;5176;42.622;25.386;2023-05-16T02:28:57;13.87;;;12.57;;
9438;SDS011;5176;42.622;25.386;2023-05-16T02:31:27;15.07;;;13.47;;
9438;SDS011;5176;42.622;25.386;2023-05-16T02:33:55;14.23;;;12.73;;
9438;SDS011;5176;42.622;25.386;2023-05-16T02:36:23;14.97;;;13.37;;
9438;SDS011;5176;42.622;25.386;2023-05-16T02:38:51;15.05;;;13.55;;
9438;SDS011;5176;42.622;25.386;2023-05-16T02:41:19;16.43;;;14.57;;
9438;SDS011;5176;42.622;25.386;2023-05-16T02:43:46;15.00;;;13.33;;
9438;SDS011;5176;42.622;25.386;2023-05-16T02:46:20;16.10;;;13.97;;
9438;SDS011;5176;42.622;25.386;2023-05-16T02:48:51;15.43;;;13.97;;
9438;SDS011;5176;42.622;25.386;2023-05-16T02:51:19;14.93;;;13.27;;
9438;SDS011;5176;42.622;25.386;2023-05-16T02:53:47;15.60;;;14.10;;
9438;SDS011;5176;42.622;25.386;2023-05-16T02:56:15;15.00;;;13.57;;
9438;SDS011;5176;42.622;25.386;2023-05-16T02:58:42;15.20;;;13.80;;
9438;SDS011;5176;42.622;25.386;2023-05-16T03:01:12;14.77;;;13.30;;
9438;SDS011;5176;42.622;25.386;2023-05-16T03:03:40;14.10;;;12.77;;
9438;SDS011;5176;42.622;25.386;2023-05-16T03:06:09;15.67;;;14.10;;
9438;SDS011;5176;42.622;25.386;2023-05-16T03:08:36;15.37;;;13.87;;
9438;SDS011;5176;42.622;25.386;2023-05-16T03:11:04;16.17;;;14.67;;
9438;SDS011;5176;42.622;25.386;2023-05-16T03:13:31;15.20;;;13.63;;
9438;SDS011;5176;42.622;25.386;2023-05-16T03:15:59;15.67;;;13.90;;
9438;SDS011;5176;42.622;25.386;2023-05-16T03:18:27;14.93;;;13.43;;
9438;SDS011;5176;42.622;25.386;2023-05-16T03:20:55;14.90;;;13.50;;
9438;SDS011;5176;42.622;25.386;2023-05-16T03:23:25;14.37;;;12.97;;
9438;SDS011;5176;42.622;25.386;2023-05-16T03:25:53;15.37;;;13.97;;
9438;SDS011;5176;42.622;25.386;2023-05-16T03:28:20;15.07;;;13.60;;
9438;SDS011;5176;42.622;25.386;2023-05-16T03:30:47;15.33;;;13.83;;
9438;SDS011;5176;42.622;25.386;2023-05-16T03:33:15;15.17;;;13.50;;
9438;SDS011;5176;42.622;25.386;2023-05-16T03:35:43;14.60;;;12.90;;
9438;SDS011;5176;42.622;25.386;2023-05-16T03:38:11;15.07;;;13.67;;
9438;SDS011;5176;42.622;25.386;2023-05-16T03:40:40;14.23;;;12.83;;
9438;SDS011;5176;42.622;25.386;2023-05-16T03:43:08;14.53;;;13.03;;
9438;SDS011;5176;42.622;25.386;2023-05-16T03:45:35;16.23;;;12.67;;
9438;SDS011;5176;42.622;25.386;2023-05-16T03:48:03;13.80;;;12.27;;
9438;SDS011;5176;42.622;25.386;2023-05-16T03:50:30;13.73;;;12.23;;
9438;SDS011;5176;42.622;25.386;2023-05-16T03:52:57;18.33;;;13.03;;
9438;SDS011;5176;42.622;25.386;2023-05-16T03:55:24;14.57;;;12.67;;
9438;SDS011;5176;42.622;25.386;2023-05-16T03:57:53;15.23;;;13.70;;
9438;SDS011;5176;42.622;25.386;2023-05-16T04:00:20;19.83;;;14.07;;
9438;SDS011;5176;42.622;25.386;2023-05-16T04:02:47;16.30;;;14.23;;
9438;SDS011;5176;42.622;25.386;2023-05-16T04:05:15;15.90;;;13.67;;
9438;SDS011;5176;42.622;25.386;2023-05-16T04:07:42;16.60;;;14.33;;
9438;SDS011;5176;42.622;25.386;2023-05-16T04:10:10;16.60;;;13.57;;
9438;SDS011;5176;42.622;25.386;2023-05-16T04:12:37;21.10;;;14.90;;
9438;SDS011;5176;42.622;25.386;2023-05-16T04:15:06;16.30;;;14.60;;
9438;SDS011;5176;42.622;25.386;2023-05-16T04:17:34;13.03;;;11.37;;
9438;SDS011;5176;42.622;25.386;2023-05-16T04:20:02;12.57;;;11.27;;
9438;SDS011;5176;42.622;25.386;2023-05-16T04:22:31;13.63;;;11.97;;
9438;SDS011;5176;42.622;25.386;2023-05-16T04:24:58;15.77;;;12.20;;
9438;SDS011;5176;42.622;25.386;2023-05-16T04:27:26;12.55;;;11.35;;
9438;SDS011;5176;42.622;25.386;2023-05-16T04:29:53;14.67;;;13.17;;
9438;SDS011;5176;42.622;25.386;2023-05-16T04:32:22;15.10;;;12.97;;
9438;SDS011;5176;42.622;25.386;2023-05-16T04:34:49;15.23;;;13.73;;
9438;SDS011;5176;42.622;25.386;2023-05-16T04:37:18;14.80;;;13.30;;
9438;SDS011;5176;42.622;25.386;2023-05-16T04:39:46;14.03;;;12.83;;
9438;SDS011;5176;42.622;25.386;2023-05-16T04:42:14;14.93;;;13.43;;
9438;SDS011;5176;42.622;25.386;2023-05-16T04:44:41;15.07;;;13.37;;
9438;SDS011;5176;42.622;25.386;2023-05-16T04:47:09;16.37;;;13.30;;
9438;SDS011;5176;42.622;25.386;2023-05-16T04:49:37;13.53;;;12.27;;
9438;SDS011;5176;42.622;25.386;2023-05-16T04:52:05;15.87;;;12.97;;
9438;SDS011;5176;42.622;25.386;2023-05-16T04:54:33;14.73;;;13.23;;
9438;SDS011;5176;42.622;25.386;2023-05-16T04:57:00;15.50;;;13.90;;
9438;SDS011;5176;42.622;25.386;2023-05-16T04:59:28;16.97;;;14.10;;
9438;SDS011;5176;42.622;25.386;2023-05-16T05:01:55;14.70;;;13.40;;
9438;SDS011;5176;42.622;25.386;2023-05-16T05:04:23;15.00;;;13.60;;
9438;SDS011;5176;42.622;25.386;2023-05-16T05:06:52;16.53;;;14.83;;
9438;SDS011;5176;42.622;25.386;2023-05-16T05:09:19;16.87;;;14.33;;
9438;SDS011;5176;42.622;25.386;2023-05-16T05:11:46;15.07;;;13.37;;
9438;SDS011;5176;42.622;25.386;2023-05-16T05:14:13;15.13;;;13.60;;
9438;SDS011;5176;42.622;25.386;2023-05-16T05:16:41;14.57;;;13.17;;
9438;SDS011;5176;42.622;25.386;2023-05-16T05:19:08;14.97;;;12.87;;
9438;SDS011;5176;42.622;25.386;2023-05-16T05:21:35;13.27;;;12.07;;
9438;SDS011;5176;42.622;25.386;2023-05-16T05:24:04;13.63;;;12.10;;
9438;SDS011;5176;42.622;25.386;2023-05-16T05:26:32;14.80;;;13.40;;
9438;SDS011;5176;42.622;25.386;2023-05-16T05:28:59;14.60;;;13.07;;
9438;SDS011;5176;42.622;25.386;2023-05-16T05:31:26;16.27;;;14.70;;
9438;SDS011;5176;42.622;25.386;2023-05-16T05:33:54;15.43;;;13.88;;
9438;SDS011;5176;42.622;25.386;2023-05-16T05:36:21;16.88;;;14.35;;
9438;SDS011;5176;42.622;25.386;2023-05-16T05:38:48;17.60;;;15.73;;
9438;SDS011;5176;42.622;25.386;2023-05-16T05:41:17;14.35;;;12.93;;
9438;SDS011;5176;42.622;25.386;2023-05-16T05:43:46;14.57;;;13.17;;
9438;SDS011;5176;42.622;25.386;2023-05-16T05:46:13;15.60;;;13.90;;
9438;SDS011;5176;42.622;25.386;2023-05-16T05:48:41;14.82;;;13.63;;
9438;SDS011;5176;42.622;25.386;2023-05-16T05:51:09;15.13;;;13.35;;
9438;SDS011;5176;42.622;25.386;2023-05-16T05:53:38;14.48;;;13.18;;
9438;SDS011;5176;42.622;25.386;2023-05-16T05:56:06;15.65;;;14.05;;
9438;SDS011;5176;42.622;25.386;2023-05-16T05:58:35;15.45;;;14.02;;
9438;SDS011;5176;42.622;25.386;2023-05-16T06:01:02;14.00;;;12.60;;
9438;SDS011;5176;42.622;25.386;2023-05-16T06:03:29;13.95;;;12.65;;
9438;SDS011;5176;42.622;25.386;2023-05-16T06:05:57;14.27;;;13.07;;
9438;SDS011;5176;42.622;25.386;2023-05-16T06:08:24;13.95;;;12.55;;
9438;SDS011;5176;42.622;25.386;2023-05-16T06:10:52;14.10;;;12.43;;
9438;SDS011;5176;42.622;25.386;2023-05-16T06:13:19;14.02;;;12.63;;
9438;SDS011;5176;42.622;25.386;2023-05-16T06:15:50;12.55;;;11.27;;
9438;SDS011;5176;42.622;25.386;2023-05-16T06:18:17;14.88;;;13.02;;
9438;SDS011;5176;42.622;25.386;2023-05-16T06:20:45;15.73;;;14.25;;
9438;SDS011;5176;42.622;25.386;2023-05-16T06:23:12;13.40;;;12.10;;
9438;SDS011;5176;42.622;25.386;2023-05-16T06:25:40;14.10;;;12.30;;
9438;SDS011;5176;42.622;25.386;2023-05-16T06:28:07;15.35;;;11.90;;
9438;SDS011;5176;42.622;25.386;2023-05-16T06:30:34;13.00;;;11.65;;
9438;SDS011;5176;42.622;25.386;2023-05-16T06:33:03;12.25;;;11.10;;
9438;SDS011;5176;42.622;25.386;2023-05-16T06:35:30;11.00;;;10.10;;
9438;SDS011;5176;42.622;25.386;2023-05-16T06:37:58;14.90;;;10.00;;
9438;SDS011;5176;42.622;25.386;2023-05-16T06:40:25;13.05;;;10.52;;
9438;SDS011;5176;42.622;25.386;2023-05-16T06:42:52;10.98;;;9.77;;
9438;SDS011;5176;42.622;25.386;2023-05-16T06:45:22;11.38;;;10.27;;
9438;SDS011;5176;42.622;25.386;2023-05-16T06:47:50;11.70;;;10.60;;
9438;SDS011;5176;42.622;25.386;2023-05-16T06:50:19;12.43;;;10.48;;
9438;SDS011;5176;42.622;25.386;2023-05-16T06:52:46;11.80;;;10.70;;
9438;SDS011;5176;42.622;25.386;2023-05-16T06:55:13;12.60;;;11.18;;
9438;SDS011;5176;42.622;25.386;2023-05-16T06:57:41;11.52;;;10.50;;
9438;SDS011;5176;42.622;25.386;2023-05-16T07:00:08;11.20;;;10.00;;
9438;SDS011;5176;42.622;25.386;2023-05-16T07:02:36;11.55;;;10.38;;
9438;SDS011;5176;42.622;25.386;2023-05-16T07:05:05;13.90;;;11.18;;
9438;SDS011;5176;42.622;25.386;2023-05-16T07:07:34;11.98;;;10.70;;
9438;SDS011;5176;42.622;25.386;2023-05-16T07:10:02;12.27;;;11.00;;
9438;SDS011;5176;42.622;25.386;2023-05-16T07:12:29;12.00;;;10.90;;
9438;SDS011;5176;42.622;25.386;2023-05-16T07:14:56;11.27;;;10.27;;
9438;SDS011;5176;42.622;25.386;2023-05-16T07:17:24;11.38;;;10.27;;
9438;SDS011;5176;42.622;25.386;2023-05-16T07:19:51;11.68;;;9.98;;
9438;SDS011;5176;42.622;25.386;2023-05-16T07:22:19;11.35;;;10.15;;
9438;SDS011;5176;42.622;25.386;2023-05-16T07:24:47;11.65;;;9.65;;
9438;SDS011;5176;42.622;25.386;2023-05-16T07:27:17;10.95;;;9.85;;
9438;SDS011;5176;42.622;25.386;2023-05-16T07:29:44;15.32;;;10.00;;
9438;SDS011;5176;42.622;25.386;2023-05-16T07:32:12;11.93;;;10.30;;
9438;SDS011;5176;42.622;25.386;2023-05-16T07:34:39;11.50;;;10.30;;
9438;SDS011;5176;42.622;25.386;2023-05-16T07:37:06;11.23;;;10.32;;
9438;SDS011;5176;42.622;25.386;2023-05-16T07:39:37;12.65;;;10.43;;
9438;SDS011;5176;42.622;25.386;2023-05-16T07:42:07;11.73;;;10.63;;
9438;SDS011;5176;42.622;25.386;2023-05-16T07:44:34;11.88;;;10.63;;
9438;SDS011;5176;42.622;25.386;2023-05-16T07:47:02;12.52;;;11.00;;
9438;SDS011;5176;42.622;25.386;2023-05-16T07:49:29;13.18;;;10.52;;
9438;SDS011;5176;42.622;25.386;2023-05-16T07:51:56;11.35;;;10.23;;
9438;SDS011;5176;42.622;25.386;2023-05-16T07:54:24;11.93;;;10.02;;
9438;SDS011;5176;42.622;25.386;2023-05-16T07:56:51;11.55;;;9.93;;
9438;SDS011;5176;42.622;25.386;2023-05-16T07:59:20;13.90;;;11.43;;
9438;SDS011;5176;42.622;25.386;2023-05-16T08:01:47;14.43;;;11.77;;
9438;SDS011;5176;42.622;25.386;2023-05-16T08:04:14;13.95;;;11.75;;
9438;SDS011;5176;42.622;25.386;2023-05-16T08:06:42;12.68;;;11.20;;
9438;SDS011;5176;42.622;25.386;2023-05-16T08:09:09;15.32;;;11.82;;
9438;SDS011;5176;42.622;25.386;2023-05-16T08:11:37;13.98;;;11.68;;
9438;SDS011;5176;42.622;25.386;2023-05-16T08:14:05;15.63;;;12.55;;
9438;SDS011;5176;42.622;25.386;2023-05-16T08:16:33;17.55;;;14.35;;
9438;SDS011;5176;42.622;25.386;2023-05-16T08:19:01;14.75;;;12.63;;
9438;SDS011;5176;42.622;25.386;2023-05-16T08:21:28;17.65;;;12.98;;
9438;SDS011;5176;42.622;25.386;2023-05-16T08:23:56;19.02;;;11.55;;
9438;SDS011;5176;42.622;25.386;2023-05-16T08:26:23;12.43;;;11.07;;
9438;SDS011;5176;42.622;25.386;2023-05-16T08:28:51;15.90;;;11.20;;
9438;SDS011;5176;42.622;25.386;2023-05-16T08:31:19;12.60;;;11.13;;
9438;SDS011;5176;42.622;25.386;2023-05-16T08:33:47;15.32;;;10.63;;
9438;SDS011;5176;42.622;25.386;2023-05-16T08:36:15;18.70;;;11.80;;
9438;SDS011;5176;42.622;25.386;2023-05-16T08:38:44;13.02;;;10.30;;
9438;SDS011;5176;42.622;25.386;2023-05-16T08:41:11;12.65;;;10.35;;
9438;SDS011;5176;42.622;25.386;2023-05-16T08:43:39;19.27;;;10.65;;
9438;SDS011;5176;42.622;25.386;2023-05-16T08:46:06;13.18;;;9.88;;
9438;SDS011;5176;42.622;25.386;2023-05-16T08:48:33;16.20;;;10.85;;
9438;SDS011;5176;42.622;25.386;2023-05-16T08:51:05;13.02;;;9.52;;
9438;SDS011;5176;42.622;25.386;2023-05-16T08:53:36;17.83;;;9.38;;
9438;SDS011;5176;42.622;25.386;2023-05-16T08:56:06;12.25;;;8.75;;
9438;SDS011;5176;42.622;25.386;2023-05-16T08:58:36;16.20;;;9.80;;
9438;SDS011;5176;42.622;25.386;2023-05-16T09:01:05;9.98;;;8.48;;
9438;SDS011;5176;42.622;25.386;2023-05-16T09:03:33;12.55;;;8.65;;
9438;SDS011;5176;42.622;25.386;2023-05-16T09:06:03;11.13;;;8.10;;
9438;SDS011;5176;42.622;25.386;2023-05-16T09:08:32;12.88;;;9.27;;
9438;SDS011;5176;42.622;25.386;2023-05-16T09:11:00;12.85;;;9.88;;
9438;SDS011;5176;42.622;25.386;2023-05-16T09:13:28;11.25;;;9.88;;
9438;SDS011;5176;42.622;25.386;2023-05-16T09:16:07;13.95;;;9.90;;
9438;SDS011;5176;42.622;25.386;2023-05-16T09:18:35;12.43;;;9.85;;
9438;SDS011;5176;42.622;25.386;2023-05-16T09:21:02;14.52;;;10.73;;
9438;SDS011;5176;42.622;25.386;2023-05-16T09:23:33;12.45;;;10.23;;
9438;SDS011;5176;42.622;25.386;2023-05-16T09:26:01;12.05;;;10.35;;
9438;SDS011;5176;42.622;25.386;2023-05-16T09:28:29;12.13;;;10.90;;
9438;SDS011;5176;42.622;25.386;2023-05-16T09:30:57;13.60;;;11.35;;
9438;SDS011;5176;42.622;25.386;2023-05-16T09:33:26;11.65;;;10.52;;
9438;SDS011;5176;42.622;25.386;2023-05-16T09:35:55;13.57;;;10.27;;
9438;SDS011;5176;42.622;25.386;2023-05-16T09:38:24;11.20;;;9.98;;
9438;SDS011;5176;42.622;25.386;2023-05-16T09:40:54;13.23;;;9.63;;
9438;SDS011;5176;42.622;25.386;2023-05-16T09:43:24;10.95;;;8.48;;
9438;SDS011;5176;42.622;25.386;2023-05-16T09:45:57;9.98;;;8.98;;
9438;SDS011;5176;42.622;25.386;2023-05-16T09:48:25;9.90;;;7.78;;
9438;SDS011;5176;42.622;25.386;2023-05-16T09:50:53;8.80;;;7.90;;
9438;SDS011;5176;42.622;25.386;2023-05-16T09:53:25;16.50;;;8.25;;
9438;SDS011;5176;42.622;25.386;2023-05-16T09:56:00;9.57;;;6.55;;
9438;SDS011;5176;42.622;25.386;2023-05-16T09:58:29;7.78;;;6.68;;
9438;SDS011;5176;42.622;25.386;2023-05-16T10:00:59;9.95;;;6.82;;
9438;SDS011;5176;42.622;25.386;2023-05-16T10:03:27;11.07;;;8.45;;
9438;SDS011;5176;42.622;25.386;2023-05-16T10:05:55;8.63;;;7.75;;
9438;SDS011;5176;42.622;25.386;2023-05-16T10:08:23;16.83;;;8.27;;
9438;SDS011;5176;42.622;25.386;2023-05-16T10:10:53;9.32;;;7.70;;
9438;SDS011;5176;42.622;25.386;2023-05-16T10:13:25;9.77;;;8.77;;
9438;SDS011;5176;42.622;25.386;2023-05-16T10:15:55;11.02;;;8.05;;
9438;SDS011;5176;42.622;25.386;2023-05-16T10:18:23;9.07;;;7.50;;
9438;SDS011;5176;42.622;25.386;2023-05-16T10:20:56;11.10;;;7.35;;
9438;SDS011;5176;42.622;25.386;2023-05-16T10:23:28;10.75;;;6.57;;
9438;SDS011;5176;42.622;25.386;2023-05-16T10:25:57;8.65;;;6.22;;
9438;SDS011;5176;42.622;25.386;2023-05-16T10:28:28;9.93;;;6.00;;
9438;SDS011;5176;42.622;25.386;2023-05-16T10:30:55;11.70;;;6.65;;
9438;SDS011;5176;42.622;25.386;2023-05-16T10:33:23;6.82;;;6.18;;
9438;SDS011;5176;42.622;25.386;2023-05-16T10:35:51;10.35;;;6.65;;
9438;SDS011;5176;42.622;25.386;2023-05-16T10:38:19;8.40;;;6.50;;
9438;SDS011;5176;42.622;25.386;2023-05-16T10:40:48;8.82;;;6.85;;
9438;SDS011;5176;42.622;25.386;2023-05-16T10:43:23;7.20;;;6.30;;
9438;SDS011;5176;42.622;25.386;2023-05-16T10:45:56;10.40;;;6.57;;
9438;SDS011;5176;42.622;25.386;2023-05-16T10:48:28;7.30;;;6.30;;
9438;SDS011;5176;42.622;25.386;2023-05-16T10:50:56;10.55;;;6.10;;
9438;SDS011;5176;42.622;25.386;2023-05-16T10:53:28;11.02;;;6.28;;
9438;SDS011;5176;42.622;25.386;2023-05-16T10:56:06;10.45;;;6.40;;
9438;SDS011;5176;42.622;25.386;2023-05-16T10:58:42;10.25;;;6.40;;
9438;SDS011;5176;42.622;25.386;2023-05-16T11:01:15;11.27;;;5.82;;
9438;SDS011;5176;42.622;25.386;2023-05-16T11:06:53;8.20;;;5.55;;
9438;SDS011;5176;42.622;25.386;2023-05-16T11:09:24;8.05;;;6.13;;
9438;SDS011;5176;42.622;25.386;2023-05-16T11:11:53;9.55;;;6.38;;
9438;SDS011;5176;42.622;25.386;2023-05-16T11:14:33;10.18;;;6.60;;
9438;SDS011;5176;42.622;25.386;2023-05-16T11:17:05;9.15;;;5.90;;
9438;SDS011;5176;42.622;25.386;2023-05-16T11:19:34;8.18;;;6.57;;
9438;SDS011;5176;42.622;25.386;2023-05-16T11:22:08;8.80;;;6.43;;
9438;SDS011;5176;42.622;25.386;2023-05-16T11:24:53;8.75;;;5.90;;
9438;SDS011;5176;42.622;25.386;2023-05-16T11:27:23;8.90;;;6.75;;
9438;SDS011;5176;42.622;25.386;2023-05-16T11:29:52;8.57;;;7.25;;
9438;SDS011;5176;42.622;25.386;2023-05-16T11:32:23;7.03;;;6.32;;
9438;SDS011;5176;42.622;25.386;2023-05-16T11:34:51;12.45;;;7.20;;
9438;SDS011;5176;42.622;25.386;2023-05-16T11:37:19;14.02;;;6.78;;
9438;SDS011;5176;42.622;25.386;2023-05-16T11:39:47;10.38;;;6.85;;
9438;SDS011;5176;42.622;25.386;2023-05-16T11:42:14;7.20;;;6.43;;
9438;SDS011;5176;42.622;25.386;2023-05-16T11:44:42;10.90;;;6.68;;
9438;SDS011;5176;42.622;25.386;2023-05-16T11:47:10;9.18;;;7.15;;
9438;SDS011;5176;42.622;25.386;2023-05-16T11:49:39;8.65;;;6.88;;
9438;SDS011;5176;42.622;25.386;2023-05-16T11:52:07;9.23;;;7.00;;
9438;SDS011;5176;42.622;25.386;2023-05-16T11:54:35;9.93;;;6.32;;
9438;SDS011;5176;42.622;25.386;2023-05-16T11:57:03;9.32;;;7.03;;
9438;SDS011;5176;42.622;25.386;2023-05-16T11:59:31;9.43;;;6.97;;
9438;SDS011;5176;42.622;25.386;2023-05-16T12:01:58;8.30;;;6.30;;
9438;SDS011;5176;42.622;25.386;2023-05-16T12:04:30;6.75;;;5.97;;
9438;SDS011;5176;42.622;25.386;2023-05-16T12:07:01;8.60;;;6.10;;
9438;SDS011;5176;42.622;25.386;2023-05-16T12:09:30;7.55;;;5.57;;
9438;SDS011;5176;42.622;25.386;2023-05-16T12:11:57;9.85;;;6.35;;
9438;SDS011;5176;42.622;25.386;2023-05-16T12:14:24;8.50;;;6.05;;
9438;SDS011;5176;42.622;25.386;2023-05-16T12:16:52;10.77;;;6.43;;
9438;SDS011;5176;42.622;25.386;2023-05-16T12:19:20;8.43;;;6.00;;
9438;SDS011;5176;42.622;25.386;2023-05-16T12:21:50;11.70;;;6.80;;
9438;SDS011;5176;42.622;25.386;2023-05-16T12:24:21;9.05;;;5.88;;
9438;SDS011;5176;42.622;25.386;2023-05-16T12:26:56;11.18;;;5.82;;
9438;SDS011;5176;42.622;25.386;2023-05-16T12:29:23;8.57;;;5.95;;
9438;SDS011;5176;42.622;25.386;2023-05-16T12:31:51;10.55;;;5.60;;
9438;SDS011;5176;42.622;25.386;2023-05-16T12:34:19;10.85;;;6.32;;
9438;SDS011;5176;42.622;25.386;2023-05-16T12:36:49;12.18;;;5.82;;
9438;SDS011;5176;42.622;25.386;2023-05-16T12:39:18;9.20;;;5.88;;
9438;SDS011;5176;42.622;25.386;2023-05-16T12:41:48;10.27;;;5.43;;
9438;SDS011;5176;42.622;25.386;2023-05-16T12:44:16;18.08;;;6.10;;
9438;SDS011;5176;42.622;25.386;2023-05-16T12:46:44;7.05;;;5.10;;
9438;SDS011;5176;42.622;25.386;2023-05-16T12:49:13;10.75;;;5.72;;
9438;SDS011;5176;42.622;25.386;2023-05-16T12:51:47;16.25;;;5.70;;
9438;SDS011;5176;42.622;25.386;2023-05-16T12:54:15;7.65;;;5.45;;
9438;SDS011;5176;42.622;25.386;2023-05-16T12:56:44;7.88;;;5.20;;
9438;SDS011;5176;42.622;25.386;2023-05-16T12:59:11;13.80;;;5.30;;
9438;SDS011;5176;42.622;25.386;2023-05-16T13:01:39;10.23;;;5.45;;
9438;SDS011;5176;42.622;25.386;2023-05-16T13:04:08;14.45;;;5.68;;
9438;SDS011;5176;42.622;25.386;2023-05-16T13:06:40;5.50;;;4.90;;
9438;SDS011;5176;42.622;25.386;2023-05-16T13:09:08;9.30;;;5.55;;
9438;SDS011;5176;42.622;25.386;2023-05-16T13:11:36;8.25;;;5.20;;
9438;SDS011;5176;42.622;25.386;2023-05-16T13:14:06;7.57;;;5.13;;
9438;SDS011;5176;42.622;25.386;2023-05-16T13:16:33;7.95;;;5.68;;
9438;SDS011;5176;42.622;25.386;2023-05-16T13:19:00;9.15;;;5.80;;
9438;SDS011;5176;42.622;25.386;2023-05-16T13:21:29;7.15;;;5.40;;
9438;SDS011;5176;42.622;25.386;2023-05-16T13:23:57;8.68;;;5.70;;
9438;SDS011;5176;42.622;25.386;2023-05-16T13:26:25;10.80;;;5.63;;
9438;SDS011;5176;42.622;25.386;2023-05-16T13:28:52;10.30;;;6.13;;
9438;SDS011;5176;42.622;25.386;2023-05-16T13:31:21;7.05;;;5.60;;
9438;SDS011;5176;42.622;25.386;2023-05-16T13:33:49;7.13;;;5.78;;
9438;SDS011;5176;42.622;25.386;2023-05-16T13:36:16;8.18;;;5.60;;
9438;SDS011;5176;42.622;25.386;2023-05-16T13:38:44;8.57;;;5.53;;
9438;SDS011;5176;42.622;25.386;2023-05-16T13:41:12;6.70;;;5.07;;
9438;SDS011;5176;42.622;25.386;2023-05-16T13:43:40;15.13;;;5.45;;
9438;SDS011;5176;42.622;25.386;2023-05-16T13:46:07;11.70;;;5.60;;
9438;SDS011;5176;42.622;25.386;2023-05-16T13:48:36;11.63;;;6.18;;
9438;SDS011;5176;42.622;25.386;2023-05-16T13:51:04;7.28;;;5.57;;
9438;SDS011;5176;42.622;25.386;2023-05-16T13:53:31;7.40;;;5.28;;
9438;SDS011;5176;42.622;25.386;2023-05-16T13:55:59;12.98;;;5.63;;
9438;SDS011;5176;42.622;25.386;2023-05-16T13:58:26;10.77;;;5.80;;
9438;SDS011;5176;42.622;25.386;2023-05-16T14:00:53;11.95;;;5.45;;
9438;SDS011;5176;42.622;25.386;2023-05-16T14:03:21;7.00;;;5.07;;
9438;SDS011;5176;42.622;25.386;2023-05-16T14:05:50;7.78;;;5.85;;
9438;SDS011;5176;42.622;25.386;2023-05-16T14:08:18;7.55;;;5.38;;
9438;SDS011;5176;42.622;25.386;2023-05-16T14:10:45;12.52;;;5.60;;
9438;SDS011;5176;42.622;25.386;2023-05-16T14:13:13;9.23;;;5.75;;
9438;SDS011;5176;42.622;25.386;2023-05-16T14:15:40;5.40;;;4.70;;
9438;SDS011;5176;42.622;25.386;2023-05-16T14:18:08;17.73;;;5.95;;
9438;SDS011;5176;42.622;25.386;2023-05-16T14:20:35;10.00;;;5.80;;
9438;SDS011;5176;42.622;25.386;2023-05-16T14:23:05;9.05;;;5.30;;
9438;SDS011;5176;42.622;25.386;2023-05-16T14:25:32;8.60;;;5.38;;
9438;SDS011;5176;42.622;25.386;2023-05-16T14:28:00;7.57;;;5.22;;
9438;SDS011;5176;42.622;25.386;2023-05-16T14:30:27;14.15;;;5.35;;
9438;SDS011;5176;42.622;25.386;2023-05-16T14:32:55;7.50;;;5.40;;
9438;SDS011;5176;42.622;25.386;2023-05-16T14:35:24;11.77;;;5.25;;
9438;SDS011;5176;42.622;25.386;2023-05-16T14:37:51;9.63;;;5.07;;
9438;SDS011;5176;42.622;25.386;2023-05-16T14:40:20;9.00;;;5.32;;
9438;SDS011;5176;42.622;25.386;2023-05-16T14:42:48;10.07;;;4.88;;
9438;SDS011;5176;42.622;25.386;2023-05-16T14:45:16;8.50;;;5.40;;
9438;SDS011;5176;42.622;25.386;2023-05-16T14:47:44;11.85;;;5.00;;
9438;SDS011;5176;42.622;25.386;2023-05-16T14:50:12;12.80;;;5.70;;
9438;SDS011;5176;42.622;25.386;2023-05-16T14:52:40;13.40;;;6.75;;
9438;SDS011;5176;42.622;25.386;2023-05-16T14:55:07;7.57;;;5.05;;